createdAt,value
2022-10-11T00:01:28.504Z,9.57
2022-10-11T00:03:57.930Z,9.65
2022-10-11T00:06:26.496Z,8.55
2022-10-11T00:08:55.773Z,8.40
2022-10-11T00:11:24.693Z,8.88
2022-10-11T00:13:53.326Z,8.40
2022-10-11T00:16:24.033Z,8.18
2022-10-11T00:18:52.447Z,10.05
2022-10-11T00:21:21.958Z,10.35
2022-10-11T00:23:50.792Z,8.05
2022-10-11T00:26:20.054Z,7.78
2022-10-11T00:28:48.993Z,7.88
2022-10-11T00:31:17.523Z,9.00
2022-10-11T00:33:47.695Z,11.50
2022-10-11T00:36:17.450Z,17.73
2022-10-11T00:38:46.764Z,6.65
2022-10-11T00:41:17.552Z,9.05
2022-10-11T00:43:46.292Z,12.60
2022-10-11T00:46:34.412Z,10.60
2022-10-11T00:49:08.355Z,13.98
2022-10-11T00:51:49.340Z,14.52
2022-10-11T00:54:21.669Z,11.90
2022-10-11T00:56:55.072Z,10.23
2022-10-11T00:59:26.224Z,7.97
2022-10-11T01:01:55.720Z,7.28
2022-10-11T01:04:25.425Z,12.30
2022-10-11T01:06:54.977Z,10.98
2022-10-11T01:09:23.920Z,10.80
2022-10-11T01:11:57.641Z,10.70
2022-10-11T01:14:43.955Z,9.55
2022-10-11T01:17:24.323Z,11.32
2022-10-11T01:20:20.423Z,9.68
2022-10-11T01:23:29.506Z,15.85
2022-10-11T01:26:14.767Z,9.88
2022-10-11T01:28:52.313Z,13.13
2022-10-11T01:31:27.462Z,16.88
2022-10-11T01:34:01.104Z,14.35
2022-10-11T01:36:35.595Z,12.13
2022-10-11T01:39:07.751Z,12.77
2022-10-11T01:41:41.495Z,14.65
2022-10-11T01:44:12.407Z,11.25
2022-10-11T01:46:42.323Z,15.75
2022-10-11T01:49:11.761Z,10.57
2022-10-11T01:51:47.020Z,11.18
2022-10-11T01:54:56.476Z,8.20
2022-10-11T01:57:45.422Z,8.30
2022-10-11T02:00:17.702Z,14.98
2022-10-11T02:03:02.316Z,19.15
2022-10-11T02:05:38.884Z,16.50
2022-10-11T02:08:17.052Z,16.92
2022-10-11T02:10:51.431Z,16.88
2022-10-11T02:13:27.750Z,14.70
2022-10-11T02:15:59.987Z,19.75
2022-10-11T02:18:37.572Z,16.98
2022-10-11T02:21:09.706Z,17.13
2022-10-11T02:23:43.507Z,16.60
2022-10-11T02:26:13.582Z,13.10
2022-10-11T02:28:45.071Z,14.00
2022-10-11T02:31:16.572Z,11.75
2022-10-11T02:33:51.758Z,14.43
2022-10-11T02:36:27.603Z,12.38
2022-10-11T02:39:01.300Z,15.55
2022-10-11T02:41:35.224Z,12.27
2022-10-11T02:44:08.337Z,12.23
2022-10-11T02:46:38.320Z,11.35
2022-10-11T02:49:09.847Z,13.80
2022-10-11T02:51:38.575Z,12.90
2022-10-11T02:54:08.045Z,11.20
2022-10-11T02:56:36.479Z,9.60
2022-10-11T02:59:05.399Z,9.77
2022-10-11T03:01:33.873Z,11.50
2022-10-11T03:04:03.078Z,9.65
2022-10-11T03:06:32.819Z,10.25
2022-10-11T03:09:01.990Z,12.55
2022-10-11T03:11:30.393Z,10.98
2022-10-11T03:13:59.340Z,11.40
2022-10-11T03:16:27.736Z,10.23
2022-10-11T03:18:57.098Z,11.23
2022-10-11T03:21:26.218Z,17.48
2022-10-11T03:23:56.019Z,11.32
2022-10-11T03:26:24.991Z,9.57
2022-10-11T03:28:53.391Z,10.02
2022-10-11T03:31:24.182Z,9.07
2022-10-11T03:33:53.066Z,15.05
2022-10-11T03:36:21.433Z,10.00
2022-10-11T03:38:50.796Z,10.32
2022-10-11T03:41:20.566Z,11.38
2022-10-11T03:43:49.724Z,13.27
2022-10-11T03:46:18.284Z,9.13
2022-10-11T03:48:47.067Z,13.32
2022-10-11T03:51:16.034Z,9.20
2022-10-11T03:53:45.379Z,13.10
2022-10-11T03:56:15.371Z,9.35
2022-10-11T03:58:46.615Z,11.75
2022-10-11T04:01:15.514Z,7.85
2022-10-11T04:03:44.436Z,11.20
2022-10-11T04:06:12.894Z,13.50
2022-10-11T04:08:41.700Z,10.35
2022-10-11T04:11:10.297Z,10.52
2022-10-11T04:13:39.193Z,11.30
2022-10-11T04:16:09.233Z,11.85
2022-10-11T04:18:38.248Z,14.18
2022-10-11T04:21:07.133Z,12.13
2022-10-11T04:23:36.376Z,11.20
2022-10-11T04:26:07.065Z,8.93
2022-10-11T04:28:37.275Z,10.93
2022-10-11T04:31:07.777Z,9.40
2022-10-11T04:33:38.338Z,9.60
2022-10-11T04:36:08.376Z,9.57
2022-10-11T04:38:37.104Z,9.30
2022-10-11T04:41:10.010Z,14.15
2022-10-11T04:43:38.467Z,11.25
2022-10-11T04:46:08.781Z,8.82
2022-10-11T04:48:38.982Z,12.88
2022-10-11T04:51:08.480Z,10.32
2022-10-11T04:53:37.275Z,12.95
2022-10-11T04:56:11.689Z,16.23
2022-10-11T04:58:42.124Z,15.68
2022-10-11T05:01:11.485Z,12.63
2022-10-11T05:03:41.670Z,12.15
2022-10-11T05:06:10.820Z,15.15
2022-10-11T05:08:39.982Z,14.80
2022-10-11T05:11:15.669Z,18.85
2022-10-11T05:13:45.792Z,13.98
2022-10-11T05:16:16.603Z,14.35
2022-10-11T05:18:47.878Z,17.83
2022-10-11T05:21:19.007Z,12.18
2022-10-11T05:23:50.264Z,11.15
2022-10-11T05:26:20.076Z,14.23
2022-10-11T05:28:48.515Z,13.98
2022-10-11T05:31:18.482Z,13.52
2022-10-11T05:33:48.327Z,15.55
2022-10-11T05:36:17.426Z,16.55
2022-10-11T05:38:46.489Z,15.40
2022-10-11T05:41:16.421Z,11.60
2022-10-11T05:43:45.877Z,9.80
2022-10-11T05:46:14.689Z,11.75
2022-10-11T05:48:43.083Z,13.55
2022-10-11T05:51:13.597Z,12.90
2022-10-11T05:53:42.059Z,13.35
2022-10-11T05:56:20.382Z,21.27
2022-10-11T05:58:49.164Z,13.10
2022-10-11T06:01:19.762Z,14.38
2022-10-11T06:03:48.832Z,13.43
2022-10-11T06:06:19.632Z,17.73
2022-10-11T06:08:48.674Z,11.68
2022-10-11T06:11:18.727Z,13.95
2022-10-11T06:13:47.191Z,12.52
2022-10-11T06:16:16.425Z,13.80
2022-10-11T06:18:44.884Z,12.55
2022-10-11T06:21:15.878Z,17.48
2022-10-11T06:23:49.582Z,11.55
2022-10-11T06:26:18.788Z,16.92
2022-10-11T06:28:47.371Z,17.50
2022-10-11T06:31:16.261Z,16.13
2022-10-11T06:33:44.649Z,12.82
2022-10-11T06:36:15.423Z,13.75
2022-10-11T06:38:45.745Z,13.07
2022-10-11T06:41:17.162Z,13.20
2022-10-11T06:43:45.780Z,12.32
2022-10-11T06:46:14.605Z,12.02
2022-10-11T06:48:44.319Z,15.23
2022-10-11T06:51:13.471Z,11.43
2022-10-11T06:53:42.932Z,16.23
2022-10-11T06:56:13.751Z,11.40
2022-10-11T06:58:42.375Z,14.55
2022-10-11T07:01:13.958Z,11.57
2022-10-11T07:03:43.017Z,13.90
2022-10-11T07:06:14.540Z,14.18
2022-10-11T07:08:43.411Z,14.25
2022-10-11T07:11:15.028Z,14.00
2022-10-11T07:13:44.132Z,16.45
2022-10-11T07:16:13.798Z,13.57
2022-10-11T07:18:42.394Z,18.42
2022-10-11T07:21:15.094Z,17.67
2022-10-11T07:23:44.265Z,15.18
2022-10-11T07:26:14.872Z,17.08
2022-10-11T07:28:43.526Z,14.40
2022-10-11T07:31:14.611Z,14.63
2022-10-11T07:33:43.040Z,19.95
2022-10-11T07:36:12.035Z,16.02
2022-10-11T07:38:42.077Z,16.75
2022-10-11T07:41:11.095Z,14.38
2022-10-11T07:43:43.299Z,16.00
2022-10-11T07:46:12.317Z,20.60
2022-10-11T07:48:41.629Z,18.17
2022-10-11T07:51:12.216Z,15.50
2022-10-11T07:53:42.543Z,15.75
2022-10-11T07:56:12.877Z,17.33
2022-10-11T07:58:43.891Z,19.90
2022-10-11T08:01:14.563Z,22.98
2022-10-11T08:03:43.099Z,17.63
2022-10-11T08:06:15.609Z,16.40
2022-10-11T08:08:44.601Z,19.67
2022-10-11T08:11:21.534Z,14.82
2022-10-11T08:13:52.091Z,16.48
2022-10-11T08:16:28.416Z,20.27
2022-10-11T08:18:57.353Z,19.00
2022-10-11T08:21:26.919Z,24.85
2022-10-11T08:23:55.398Z,22.13
2022-10-11T08:26:24.233Z,25.50
2022-10-11T08:28:54.132Z,22.42
2022-10-11T08:31:23.026Z,23.85
2022-10-11T08:33:51.584Z,20.20
2022-10-11T08:36:20.404Z,29.02
2022-10-11T08:38:48.814Z,28.65
2022-10-11T08:41:28.792Z,33.90
2022-10-11T08:44:09.837Z,27.33
2022-10-11T08:46:40.390Z,29.27
2022-10-11T08:49:09.748Z,28.05
2022-10-11T08:51:43.412Z,24.38
2022-10-11T08:54:18.583Z,25.60
2022-10-11T08:56:48.172Z,29.25
2022-10-11T08:59:30.574Z,27.63
2022-10-11T09:02:05.404Z,28.13
2022-10-11T09:04:34.958Z,32.83
2022-10-11T09:07:10.371Z,32.80
2022-10-11T09:10:04.996Z,35.70
2022-10-11T09:12:47.072Z,28.40
2022-10-11T09:15:25.992Z,28.77
2022-10-11T09:18:18.314Z,27.80
2022-10-11T09:20:58.218Z,25.20
2022-10-11T09:23:44.340Z,28.45
2022-10-11T09:26:18.530Z,25.55
2022-10-11T09:29:00.877Z,27.55
2022-10-11T09:31:31.517Z,21.77
2022-10-11T09:34:07.775Z,20.65
2022-10-11T09:36:42.758Z,22.23
2022-10-11T09:39:26.178Z,20.88
2022-10-11T09:41:59.936Z,24.08
2022-10-11T09:44:30.480Z,20.13
2022-10-11T09:47:00.503Z,18.15
2022-10-11T09:49:32.937Z,22.45
2022-10-11T09:52:04.068Z,20.85
2022-10-11T09:54:40.303Z,19.55
2022-10-11T09:57:20.774Z,12.75
2022-10-11T10:00:01.103Z,16.10
2022-10-11T10:02:44.292Z,16.98
2022-10-11T10:05:21.658Z,14.23
2022-10-11T10:08:05.102Z,14.93
2022-10-11T10:10:42.287Z,17.25
2022-10-11T10:13:22.119Z,14.95
2022-10-11T10:15:53.987Z,14.57
2022-10-11T10:18:26.710Z,16.27
2022-10-11T10:20:59.473Z,14.40
2022-10-11T10:23:30.338Z,20.23
2022-10-11T10:26:17.885Z,18.90
2022-10-11T10:28:58.385Z,17.35
2022-10-11T10:31:40.298Z,20.48
2022-10-11T10:34:27.434Z,18.92
2022-10-11T10:37:00.359Z,16.83
2022-10-11T10:39:32.859Z,21.20
2022-10-11T10:42:04.951Z,18.38
2022-10-11T10:44:33.310Z,21.85
2022-10-11T10:47:11.525Z,18.63
2022-10-11T10:49:54.400Z,16.80
2022-10-11T10:52:49.872Z,14.98
2022-10-11T10:55:30.182Z,14.82
2022-10-11T10:58:24.504Z,13.57
2022-10-11T11:00:57.433Z,16.55
2022-10-11T11:03:37.260Z,14.75
2022-10-11T11:06:09.862Z,12.13
2022-10-11T11:08:58.926Z,11.32
2022-10-11T11:11:40.057Z,16.10
2022-10-11T11:14:21.603Z,13.20
2022-10-11T11:16:57.930Z,13.00
2022-10-11T11:19:40.408Z,14.45
2022-10-11T11:22:32.923Z,14.48
2022-10-11T11:25:14.784Z,12.73
2022-10-11T11:27:57.915Z,12.63
2022-10-11T11:30:36.220Z,10.30
2022-10-11T11:33:17.100Z,11.82
2022-10-11T11:35:50.014Z,11.38
2022-10-11T11:38:27.237Z,11.95
2022-10-11T11:41:02.091Z,7.80
2022-10-11T11:43:37.675Z,10.45
2022-10-11T11:46:13.227Z,8.43
2022-10-11T11:48:42.312Z,9.25
2022-10-11T11:51:15.518Z,7.50
2022-10-11T11:53:59.129Z,9.90
2022-10-11T11:56:31.356Z,9.32
2022-10-11T11:59:07.519Z,6.78
2022-10-11T12:01:41.343Z,8.02
2022-10-11T12:04:19.415Z,11.23
2022-10-11T12:07:15.337Z,10.57
2022-10-11T12:09:50.464Z,8.23
2022-10-11T12:12:31.803Z,9.77
2022-10-11T12:15:17.143Z,11.07
2022-10-11T12:18:05.219Z,11.52
2022-10-11T12:20:37.716Z,11.98
2022-10-11T12:23:43.376Z,11.65
2022-10-11T12:26:37.847Z,13.18
2022-10-11T12:29:28.766Z,8.50
2022-10-11T12:32:52.528Z,12.77
2022-10-11T12:35:52.908Z,10.30
2022-10-11T12:38:23.502Z,12.00
2022-10-11T12:40:54.673Z,8.85
2022-10-11T12:43:36.084Z,11.40
2022-10-11T12:46:53.819Z,11.35
2022-10-11T12:49:47.387Z,11.15
2022-10-11T12:52:27.906Z,7.55
2022-10-11T12:55:14.345Z,7.68
2022-10-11T12:58:25.304Z,14.77
2022-10-11T13:01:16.649Z,8.55
2022-10-11T13:03:47.579Z,8.82
2022-10-11T13:06:19.897Z,10.60
2022-10-11T13:08:54.925Z,21.38
2022-10-11T13:11:28.939Z,10.20
2022-10-11T13:13:59.334Z,17.60
2022-10-11T13:16:42.709Z,21.52
2022-10-11T13:19:15.067Z,9.23
2022-10-11T13:21:44.042Z,9.98
2022-10-11T13:24:16.842Z,10.93
2022-10-11T13:26:49.020Z,10.90
2022-10-11T13:29:20.751Z,9.55
2022-10-11T13:31:50.729Z,5.68
2022-10-11T13:34:23.331Z,7.88
2022-10-11T13:36:56.896Z,11.02
2022-10-11T13:39:31.547Z,9.40
2022-10-11T13:42:01.486Z,9.57
2022-10-11T13:44:33.568Z,9.23
2022-10-11T13:47:04.763Z,7.25
2022-10-11T13:49:39.144Z,8.43
2022-10-11T13:52:21.656Z,7.47
2022-10-11T13:55:00.276Z,8.25
2022-10-11T13:57:35.821Z,9.00
2022-10-11T14:00:10.512Z,10.55
2022-10-11T14:02:47.983Z,6.05
2022-10-11T14:05:24.542Z,9.77
2022-10-11T14:07:53.345Z,7.97
2022-10-11T14:10:23.466Z,7.72
2022-10-11T14:13:07.764Z,8.75
2022-10-11T14:15:38.123Z,11.32
2022-10-11T14:18:38.289Z,13.23
2022-10-11T14:21:25.930Z,12.10
2022-10-11T14:23:56.739Z,12.93
2022-10-11T14:26:26.331Z,20.58
2022-10-11T14:28:59.667Z,12.80
2022-10-11T14:31:31.088Z,11.75
2022-10-11T14:34:00.949Z,10.75
2022-10-11T14:36:29.707Z,14.93
2022-10-11T14:38:58.070Z,15.23
2022-10-11T14:41:27.314Z,13.50
2022-10-11T14:43:56.864Z,15.05
2022-10-11T14:46:27.228Z,18.58
2022-10-11T14:48:56.700Z,18.15
2022-10-11T14:51:33.644Z,19.08
2022-10-11T14:54:02.005Z,22.45
2022-10-11T14:56:30.932Z,18.77
2022-10-11T14:58:59.392Z,14.90
2022-10-11T15:01:27.817Z,16.35
2022-10-11T15:03:56.692Z,20.00
2022-10-11T15:06:30.750Z,16.13
2022-10-11T15:08:59.136Z,18.80
2022-10-11T15:11:27.754Z,14.85
2022-10-11T15:13:56.107Z,18.25
2022-10-11T15:16:25.837Z,17.40
2022-10-11T15:18:54.231Z,13.23
2022-10-11T15:21:25.046Z,16.70
2022-10-11T15:23:56.793Z,15.18
2022-10-11T15:26:26.867Z,13.18
2022-10-11T15:28:57.657Z,11.02
2022-10-11T15:31:26.510Z,10.32
2022-10-11T15:33:59.315Z,14.55
2022-10-11T15:36:29.124Z,13.48
2022-10-11T15:38:58.816Z,13.30
2022-10-11T15:41:27.938Z,11.20
2022-10-11T15:43:56.456Z,13.45
2022-10-11T15:46:25.018Z,11.52
2022-10-11T15:48:53.475Z,11.23
2022-10-11T15:51:22.947Z,11.43
2022-10-11T15:53:51.658Z,15.45
2022-10-11T15:56:21.823Z,14.73
2022-10-11T15:58:50.153Z,12.52
2022-10-11T16:01:21.915Z,12.73
2022-10-11T16:03:51.652Z,15.55
2022-10-11T16:06:20.362Z,14.85
2022-10-11T16:08:48.776Z,17.85
2022-10-11T16:11:17.997Z,16.30
2022-10-11T16:13:47.720Z,13.55
2022-10-11T16:16:16.591Z,15.02
2022-10-11T16:18:44.968Z,16.00
2022-10-11T16:21:16.050Z,17.70
2022-10-11T16:23:44.733Z,17.42
2022-10-11T16:26:16.353Z,14.27
2022-10-11T16:28:45.155Z,14.82
2022-10-11T16:31:21.371Z,19.48
2022-10-11T16:33:50.367Z,18.25
2022-10-11T16:36:36.452Z,17.92
2022-10-11T16:39:09.707Z,16.63
2022-10-11T16:41:38.808Z,16.35
2022-10-11T16:44:07.916Z,15.95
2022-10-11T16:46:37.610Z,15.57
2022-10-11T16:49:07.114Z,17.00
2022-10-11T16:51:35.548Z,15.55
2022-10-11T16:54:04.078Z,17.20
2022-10-11T16:56:37.403Z,18.10
2022-10-11T16:59:08.331Z,17.08
2022-10-11T17:01:39.195Z,23.30
2022-10-11T17:04:08.002Z,25.13
2022-10-11T17:06:36.879Z,22.15
2022-10-11T17:09:05.863Z,21.27
2022-10-11T17:11:34.294Z,28.60
2022-10-11T17:14:03.548Z,34.75
2022-10-11T17:16:31.919Z,27.05
2022-10-11T17:19:02.583Z,20.52
2022-10-11T17:21:31.311Z,18.33
2022-10-11T17:24:00.025Z,14.02
2022-10-11T17:26:28.865Z,18.30
2022-10-11T17:28:59.143Z,13.57
2022-10-11T17:31:28.666Z,16.23
2022-10-11T17:33:59.835Z,16.98
2022-10-11T17:36:31.975Z,20.45
2022-10-11T17:39:02.320Z,22.02
2022-10-11T17:41:32.274Z,21.15
2022-10-11T17:44:02.830Z,14.93
2022-10-11T17:46:32.917Z,19.75
2022-10-11T17:49:04.710Z,21.20
2022-10-11T17:51:35.711Z,16.30
2022-10-11T17:54:06.112Z,22.42
2022-10-11T17:56:38.056Z,21.17
2022-10-11T17:59:07.311Z,18.52
2022-10-11T18:01:36.092Z,22.35
2022-10-11T18:04:06.368Z,16.55
2022-10-11T18:06:41.103Z,21.67
2022-10-11T18:09:09.661Z,17.33
2022-10-11T18:11:38.398Z,22.10
2022-10-11T18:14:07.001Z,19.23
2022-10-11T18:16:36.419Z,25.48
2022-10-11T18:19:06.380Z,19.90
2022-10-11T18:21:37.674Z,15.80
2022-10-11T18:24:11.191Z,17.38
2022-10-11T18:26:39.920Z,15.77
2022-10-11T18:29:09.237Z,29.20
2022-10-11T18:31:37.576Z,27.90
2022-10-11T18:34:10.736Z,19.60
2022-10-11T18:36:40.652Z,15.90
2022-10-11T18:39:13.879Z,22.83
2022-10-11T18:41:44.563Z,20.88
2022-10-11T18:44:15.855Z,24.25
2022-10-11T18:46:44.851Z,20.08
2022-10-11T18:49:14.523Z,21.08
2022-10-11T18:51:46.472Z,16.35
2022-10-11T18:54:20.065Z,20.25
2022-10-11T18:56:49.978Z,17.27
2022-10-11T18:59:20.010Z,22.63
2022-10-11T19:01:52.077Z,26.92
2022-10-11T19:04:21.597Z,28.25
2022-10-11T19:06:53.219Z,25.63
2022-10-11T19:09:23.326Z,26.27
2022-10-11T19:11:53.292Z,20.60
2022-10-11T19:14:25.515Z,27.95
2022-10-11T19:16:54.769Z,30.25
2022-10-11T19:19:25.182Z,29.77
2022-10-11T19:21:54.979Z,22.38
2022-10-11T19:24:26.578Z,21.70
2022-10-11T19:27:02.038Z,15.93
2022-10-11T19:29:31.654Z,22.70
2022-10-11T19:32:02.952Z,19.95
2022-10-11T19:34:32.736Z,20.77
2022-10-11T19:37:03.741Z,22.50
2022-10-11T19:39:32.422Z,21.38
2022-10-11T19:42:02.098Z,18.15
2022-10-11T19:44:32.527Z,16.50
2022-10-11T19:47:05.532Z,17.45
2022-10-11T19:49:34.258Z,22.60
2022-10-11T19:52:04.421Z,17.25
2022-10-11T19:54:33.000Z,22.48
2022-10-11T19:57:02.158Z,21.30
2022-10-11T19:59:30.511Z,24.80
2022-10-11T20:01:59.774Z,19.20
2022-10-11T20:07:19.304Z,21.48
2022-10-11T20:09:48.113Z,26.50
2022-10-11T20:12:17.179Z,19.42
2022-10-11T20:14:45.561Z,17.20
2022-10-11T20:17:13.907Z,21.17
2022-10-11T20:19:42.216Z,20.30
2022-10-11T20:22:11.008Z,20.48
2022-10-11T20:24:40.760Z,17.27
2022-10-11T20:27:10.038Z,16.40
2022-10-11T20:29:38.364Z,17.13
2022-10-11T20:32:07.055Z,19.98
2022-10-11T20:34:39.660Z,16.52
2022-10-11T20:37:08.360Z,18.65
2022-10-11T20:39:36.730Z,17.85
2022-10-11T20:42:06.554Z,16.77
2022-10-11T20:44:35.230Z,17.65
2022-10-11T20:47:04.438Z,18.42
2022-10-11T20:49:32.883Z,18.75
2022-10-11T20:52:01.254Z,15.10
2022-10-11T20:54:30.766Z,15.73
2022-10-11T20:56:59.189Z,18.83
2022-10-11T20:59:29.544Z,17.60
2022-10-11T21:01:58.299Z,21.05
2022-10-11T21:04:26.695Z,19.83
2022-10-11T21:06:55.590Z,18.88
2022-10-11T21:09:24.061Z,18.63
2022-10-11T21:11:53.031Z,20.05
2022-10-11T21:14:22.181Z,24.42
2022-10-11T21:16:51.856Z,22.40
2022-10-11T21:19:20.539Z,21.08
2022-10-11T21:21:53.513Z,20.73
2022-10-11T21:24:23.037Z,21.08
2022-10-11T21:26:51.449Z,22.23
2022-10-11T21:29:20.765Z,22.63
2022-10-11T21:31:51.003Z,22.98
2022-10-11T21:34:19.779Z,22.15
2022-10-11T21:36:48.153Z,17.83
2022-10-11T21:39:17.487Z,22.30
2022-10-11T21:41:45.863Z,23.25
2022-10-11T21:44:14.508Z,21.25
2022-10-11T21:49:33.685Z,22.20
2022-10-11T21:52:02.768Z,18.85
2022-10-11T21:54:31.706Z,21.17
2022-10-11T21:57:00.422Z,17.77
2022-10-11T21:59:28.860Z,17.10
2022-10-11T22:02:01.612Z,21.33
2022-10-11T22:04:31.345Z,20.13
2022-10-11T22:07:01.359Z,25.27
2022-10-11T22:09:34.870Z,22.10
2022-10-11T22:12:03.924Z,25.15
2022-10-11T22:14:33.396Z,23.35
2022-10-11T22:17:01.790Z,23.80
2022-10-11T22:19:31.232Z,18.25
2022-10-11T22:22:00.995Z,22.48
2022-10-11T22:24:29.819Z,23.05
2022-10-11T22:26:59.326Z,24.02
2022-10-11T22:29:33.213Z,20.77
2022-10-11T22:32:03.286Z,24.23
2022-10-11T22:34:32.459Z,23.63
2022-10-11T22:37:02.829Z,19.33
2022-10-11T22:39:31.332Z,24.50
2022-10-11T22:42:00.364Z,22.95
2022-10-11T22:44:28.890Z,22.85
2022-10-11T22:46:57.579Z,23.90
2022-10-11T22:49:26.040Z,25.73
2022-10-11T22:51:54.391Z,24.10
2022-10-11T22:54:24.786Z,28.90
2022-10-11T22:56:53.182Z,25.73
2022-10-11T22:59:22.356Z,20.23
2022-10-11T23:01:50.757Z,24.95
2022-10-11T23:04:19.709Z,24.08
2022-10-11T23:06:48.508Z,25.92
2022-10-11T23:09:16.941Z,23.63
2022-10-11T23:11:46.999Z,23.50
2022-10-11T23:14:15.516Z,29.05
2022-10-11T23:16:44.656Z,26.70
2022-10-11T23:19:13.556Z,23.80
2022-10-11T23:21:42.313Z,25.70
2022-10-11T23:24:11.753Z,26.20
2022-10-11T23:26:40.936Z,23.45
2022-10-11T23:29:10.721Z,20.63
2022-10-11T23:31:39.111Z,23.55
2022-10-11T23:34:08.279Z,21.20
2022-10-11T23:36:36.650Z,19.45
2022-10-11T23:39:05.660Z,21.35
2022-10-11T23:41:34.896Z,22.10
2022-10-11T23:44:03.251Z,23.73
2022-10-11T23:46:33.009Z,23.55
2022-10-11T23:49:01.821Z,24.65
2022-10-11T23:51:30.636Z,23.48
2022-10-11T23:53:59.135Z,20.77
2022-10-11T23:56:27.647Z,28.90
2022-10-11T23:58:56.055Z,25.83
